SCBA/BBA METAR and TAF weather

Enter ICAO airport designator
Station Type Date Time Source
SCBA METAR 2022/08/12 15:00 UTC NOAA

SCBA 121500Z 28020KT 9999 SCT023 02/M01 Q1000


Station Type Date Time Source
SCBA Decoded METAR 2022/08/12 15:00 UTC NOAA

Balmaceda, Chile (SCBA) 45-55S 071-41W 520M
Aug 12, 2022 - 11:00 AM EDT / 2022.08.12 1500 UTC
Wind: from the W (280 degrees) at 23 MPH (20 KT):0
Visibility: greater than 7 mile(s):0
Sky conditions: partly cloudy
Temperature: 35 F (2 C)
Windchill: 23 F (-5 C):1
Dew Point: 30 F (-1 C)
Relative Humidity: 80%
Pressure (altimeter): 29.53 in. Hg (1000 hPa)
ob: SCBA 121500Z 28020KT 9999 SCT023 02/M01 Q1000
cycle: 15

Station Type Date Time Source
SCBA TAF 2022/08/12 12:37 UTC NOAA

TAF COR SCBA 121132Z 1212/1312 30015KT 9999 BKN013 BKN025 TN01/1212Z TX04/1218Z
BECMG 1212/1214 30025KT BKN025 BKN045
BECMG 1215/1217 30028G38KT FEW050
BECMG 1222/1224 30015KT SCT040
BECMG 1302/1304 27005KT OVC030
BECMG 1307/1309 VRB03KT BKN030

Example: see airport list